sensor_id;sensor_type;location;lat;lon;timestamp;temperature;humidity
23471;DHT22;11908;50.806;4.424;2023-01-30T00:00:28;5.30;99.90
23471;DHT22;11908;50.806;4.424;2023-01-30T00:02:54;5.40;99.90
23471;DHT22;11908;50.806;4.424;2023-01-30T00:05:19;5.40;99.90
23471;DHT22;11908;50.806;4.424;2023-01-30T00:07:48;5.30;99.90
23471;DHT22;11908;50.806;4.424;2023-01-30T00:10:14;5.30;99.90
23471;DHT22;11908;50.806;4.424;2023-01-30T00:12:40;5.40;99.90
23471;DHT22;11908;50.806;4.424;2023-01-30T00:15:07;5.40;99.90
23471;DHT22;11908;50.806;4.424;2023-01-30T00:17:32;5.40;99.90
23471;DHT22;11908;50.806;4.424;2023-01-30T00:19:58;5.50;99.90
23471;DHT22;11908;50.806;4.424;2023-01-30T00:22:24;5.40;99.90
23471;DHT22;11908;50.806;4.424;2023-01-30T00:24:50;5.40;99.90
23471;DHT22;11908;50.806;4.424;2023-01-30T00:27:16;5.30;99.90
23471;DHT22;11908;50.806;4.424;2023-01-30T00:29:41;5.40;99.90
23471;DHT22;11908;50.806;4.424;2023-01-30T00:32:07;5.40;99.90
23471;DHT22;11908;50.806;4.424;2023-01-30T00:34:33;5.40;99.90
23471;DHT22;11908;50.806;4.424;2023-01-30T00:36:59;5.40;99.90
23471;DHT22;11908;50.806;4.424;2023-01-30T00:39:24;5.40;99.90
23471;DHT22;11908;50.806;4.424;2023-01-30T00:41:50;5.50;99.90
23471;DHT22;11908;50.806;4.424;2023-01-30T00:44:34;5.40;99.90
23471;DHT22;11908;50.806;4.424;2023-01-30T00:47:26;5.50;99.90
23471;DHT22;11908;50.806;4.424;2023-01-30T00:49:51;5.50;99.90
23471;DHT22;11908;50.806;4.424;2023-01-30T00:52:17;5.50;99.90
23471;DHT22;11908;50.806;4.424;2023-01-30T00:54:43;5.50;99.90
23471;DHT22;11908;50.806;4.424;2023-01-30T00:57:08;5.60;99.90
23471;DHT22;11908;50.806;4.424;2023-01-30T00:59:34;5.60;99.90
23471;DHT22;11908;50.806;4.424;2023-01-30T01:02:00;5.60;99.90
23471;DHT22;11908;50.806;4.424;2023-01-30T01:04:25;5.70;99.90
23471;DHT22;11908;50.806;4.424;2023-01-30T01:06:51;5.70;99.90
23471;DHT22;11908;50.806;4.424;2023-01-30T01:09:17;5.60;99.90
23471;DHT22;11908;50.806;4.424;2023-01-30T01:11:43;5.60;99.90
23471;DHT22;11908;50.806;4.424;2023-01-30T01:14:11;5.50;99.90
23471;DHT22;11908;50.806;4.424;2023-01-30T01:16:37;5.50;99.90
23471;DHT22;11908;50.806;4.424;2023-01-30T01:19:03;5.60;99.90
23471;DHT22;11908;50.806;4.424;2023-01-30T01:21:28;5.70;99.90
23471;DHT22;11908;50.806;4.424;2023-01-30T01:23:57;5.70;99.90
23471;DHT22;11908;50.806;4.424;2023-01-30T01:26:22;5.60;99.90
23471;DHT22;11908;50.806;4.424;2023-01-30T01:28:48;5.60;99.90
23471;DHT22;11908;50.806;4.424;2023-01-30T01:31:15;5.70;99.90
23471;DHT22;11908;50.806;4.424;2023-01-30T01:33:41;5.70;99.90
23471;DHT22;11908;50.806;4.424;2023-01-30T01:36:07;5.70;99.90
23471;DHT22;11908;50.806;4.424;2023-01-30T01:38:33;5.70;99.90
23471;DHT22;11908;50.806;4.424;2023-01-30T01:40:59;5.70;99.90
23471;DHT22;11908;50.806;4.424;2023-01-30T01:43:37;5.80;99.90
23471;DHT22;11908;50.806;4.424;2023-01-30T01:46:16;5.80;99.90
23471;DHT22;11908;50.806;4.424;2023-01-30T01:48:52;5.80;99.90
23471;DHT22;11908;50.806;4.424;2023-01-30T01:54:17;5.70;99.90
23471;DHT22;11908;50.806;4.424;2023-01-30T01:56:45;5.70;99.90
23471;DHT22;11908;50.806;4.424;2023-01-30T01:59:20;5.70;99.90
23471;DHT22;11908;50.806;4.424;2023-01-30T02:04:15;5.70;99.90
23471;DHT22;11908;50.806;4.424;2023-01-30T02:07:01;5.70;99.90
23471;DHT22;11908;50.806;4.424;2023-01-30T02:09:27;5.80;99.90
23471;DHT22;11908;50.806;4.424;2023-01-30T02:11:56;5.80;99.90
23471;DHT22;11908;50.806;4.424;2023-01-30T02:14:24;5.70;99.90
23471;DHT22;11908;50.806;4.424;2023-01-30T02:16:50;5.80;99.90
23471;DHT22;11908;50.806;4.424;2023-01-30T02:19:29;5.80;99.90
23471;DHT22;11908;50.806;4.424;2023-01-30T02:39:15;5.80;99.90
23471;DHT22;11908;50.806;4.424;2023-01-30T02:41:46;5.90;99.90
23471;DHT22;11908;50.806;4.424;2023-01-30T02:44:17;6.00;99.90
23471;DHT22;11908;50.806;4.424;2023-01-30T02:49:44;5.80;99.90
23471;DHT22;11908;50.806;4.424;2023-01-30T02:52:12;5.90;99.90
23471;DHT22;11908;50.806;4.424;2023-01-30T02:54:38;5.90;99.90
23471;DHT22;11908;50.806;4.424;2023-01-30T02:57:20;6.00;99.90
23471;DHT22;11908;50.806;4.424;2023-01-30T02:59:49;6.00;99.90
23471;DHT22;11908;50.806;4.424;2023-01-30T03:02:19;6.00;99.90
23471;DHT22;11908;50.806;4.424;2023-01-30T03:10:15;6.20;99.90
23471;DHT22;11908;50.806;4.424;2023-01-30T03:15:56;6.20;99.90
23471;DHT22;11908;50.806;4.424;2023-01-30T03:18:24;6.30;99.90
23471;DHT22;11908;50.806;4.424;2023-01-30T03:20:50;6.20;99.90
23471;DHT22;11908;50.806;4.424;2023-01-30T03:23:16;6.20;99.90
23471;DHT22;11908;50.806;4.424;2023-01-30T03:25:42;6.20;99.90
23471;DHT22;11908;50.806;4.424;2023-01-30T03:28:13;6.30;99.90
23471;DHT22;11908;50.806;4.424;2023-01-30T03:30:39;6.30;99.90
23471;DHT22;11908;50.806;4.424;2023-01-30T03:33:04;6.30;99.90
23471;DHT22;11908;50.806;4.424;2023-01-30T03:35:30;6.40;99.90
23471;DHT22;11908;50.806;4.424;2023-01-30T03:37:57;6.40;99.90
23471;DHT22;11908;50.806;4.424;2023-01-30T03:40:23;6.40;99.90
23471;DHT22;11908;50.806;4.424;2023-01-30T03:42:49;6.30;99.90
23471;DHT22;11908;50.806;4.424;2023-01-30T03:45:14;6.40;99.90
23471;DHT22;11908;50.806;4.424;2023-01-30T03:47:40;6.40;99.90
23471;DHT22;11908;50.806;4.424;2023-01-30T03:50:06;6.50;99.90
23471;DHT22;11908;50.806;4.424;2023-01-30T03:52:34;6.50;99.90
23471;DHT22;11908;50.806;4.424;2023-01-30T03:54:59;6.50;99.90
23471;DHT22;11908;50.806;4.424;2023-01-30T03:57:25;6.40;99.90
23471;DHT22;11908;50.806;4.424;2023-01-30T03:59:51;6.50;99.90
23471;DHT22;11908;50.806;4.424;2023-01-30T04:02:16;6.60;99.90
23471;DHT22;11908;50.806;4.424;2023-01-30T04:04:47;6.60;99.90
23471;DHT22;11908;50.806;4.424;2023-01-30T04:07:13;6.60;99.90
23471;DHT22;11908;50.806;4.424;2023-01-30T04:09:39;6.60;99.90
23471;DHT22;11908;50.806;4.424;2023-01-30T04:12:04;6.60;99.90
23471;DHT22;11908;50.806;4.424;2023-01-30T04:14:30;6.60;99.90
23471;DHT22;11908;50.806;4.424;2023-01-30T04:16:56;6.50;99.90
23471;DHT22;11908;50.806;4.424;2023-01-30T04:19:21;6.60;99.90
23471;DHT22;11908;50.806;4.424;2023-01-30T04:21:47;6.50;99.90
23471;DHT22;11908;50.806;4.424;2023-01-30T04:24:13;6.50;99.90
23471;DHT22;11908;50.806;4.424;2023-01-30T04:26:38;6.60;99.90
23471;DHT22;11908;50.806;4.424;2023-01-30T04:29:04;6.50;99.90
23471;DHT22;11908;50.806;4.424;2023-01-30T04:31:30;6.60;99.90
23471;DHT22;11908;50.806;4.424;2023-01-30T04:33:55;6.60;99.90
23471;DHT22;11908;50.806;4.424;2023-01-30T04:36:21;6.50;99.90
23471;DHT22;11908;50.806;4.424;2023-01-30T04:38:46;6.50;99.90
23471;DHT22;11908;50.806;4.424;2023-01-30T04:41:12;6.40;99.90
23471;DHT22;11908;50.806;4.424;2023-01-30T04:43:38;6.40;99.90
23471;DHT22;11908;50.806;4.424;2023-01-30T04:46:03;6.40;99.90
23471;DHT22;11908;50.806;4.424;2023-01-30T04:48:29;6.50;99.90
23471;DHT22;11908;50.806;4.424;2023-01-30T04:50:55;6.40;99.90
23471;DHT22;11908;50.806;4.424;2023-01-30T04:53:22;6.40;99.90
23471;DHT22;11908;50.806;4.424;2023-01-30T04:55:48;6.40;99.90
23471;DHT22;11908;50.806;4.424;2023-01-30T04:58:15;6.40;99.90
23471;DHT22;11908;50.806;4.424;2023-01-30T05:00:41;6.50;99.90
23471;DHT22;11908;50.806;4.424;2023-01-30T05:03:07;6.50;99.90
23471;DHT22;11908;50.806;4.424;2023-01-30T05:05:32;6.50;99.90
23471;DHT22;11908;50.806;4.424;2023-01-30T05:07:58;6.60;99.90
23471;DHT22;11908;50.806;4.424;2023-01-30T05:10:24;6.50;99.90
23471;DHT22;11908;50.806;4.424;2023-01-30T05:12:50;6.50;99.90
23471;DHT22;11908;50.806;4.424;2023-01-30T05:15:16;6.50;99.90
23471;DHT22;11908;50.806;4.424;2023-01-30T05:17:42;6.50;99.90
23471;DHT22;11908;50.806;4.424;2023-01-30T05:20:08;6.60;99.90
23471;DHT22;11908;50.806;4.424;2023-01-30T05:22:35;6.60;99.90
23471;DHT22;11908;50.806;4.424;2023-01-30T05:25:00;6.50;99.90
23471;DHT22;11908;50.806;4.424;2023-01-30T05:27:26;6.60;99.90
23471;DHT22;11908;50.806;4.424;2023-01-30T05:29:52;6.60;99.90
23471;DHT22;11908;50.806;4.424;2023-01-30T05:32:18;6.60;99.90
23471;DHT22;11908;50.806;4.424;2023-01-30T05:34:44;6.60;99.90
23471;DHT22;11908;50.806;4.424;2023-01-30T05:37:11;6.70;99.90
23471;DHT22;11908;50.806;4.424;2023-01-30T05:39:37;6.70;99.90
23471;DHT22;11908;50.806;4.424;2023-01-30T05:42:03;6.70;99.90
23471;DHT22;11908;50.806;4.424;2023-01-30T05:44:29;6.80;99.90
23471;DHT22;11908;50.806;4.424;2023-01-30T05:46:54;6.80;99.90
23471;DHT22;11908;50.806;4.424;2023-01-30T05:49:20;6.90;99.90
23471;DHT22;11908;50.806;4.424;2023-01-30T05:51:46;6.90;99.90
23471;DHT22;11908;50.806;4.424;2023-01-30T05:54:15;6.90;99.90
23471;DHT22;11908;50.806;4.424;2023-01-30T05:56:41;6.90;99.90
23471;DHT22;11908;50.806;4.424;2023-01-30T05:59:10;6.80;99.90
23471;DHT22;11908;50.806;4.424;2023-01-30T06:01:36;6.80;99.90
23471;DHT22;11908;50.806;4.424;2023-01-30T06:04:02;6.80;99.90
23471;DHT22;11908;50.806;4.424;2023-01-30T06:06:27;6.90;99.90
23471;DHT22;11908;50.806;4.424;2023-01-30T06:08:54;6.90;99.90
23471;DHT22;11908;50.806;4.424;2023-01-30T06:11:20;6.90;99.90
23471;DHT22;11908;50.806;4.424;2023-01-30T06:13:46;6.90;99.90
23471;DHT22;11908;50.806;4.424;2023-01-30T06:16:13;6.90;99.90
23471;DHT22;11908;50.806;4.424;2023-01-30T06:18:39;6.90;99.90
23471;DHT22;11908;50.806;4.424;2023-01-30T06:21:05;7.00;99.90
23471;DHT22;11908;50.806;4.424;2023-01-30T06:23:31;7.10;99.90
23471;DHT22;11908;50.806;4.424;2023-01-30T06:25:57;7.20;99.90
23471;DHT22;11908;50.806;4.424;2023-01-30T06:28:24;7.10;99.90
23471;DHT22;11908;50.806;4.424;2023-01-30T06:30:50;7.20;99.90
23471;DHT22;11908;50.806;4.424;2023-01-30T06:33:16;7.20;99.90
23471;DHT22;11908;50.806;4.424;2023-01-30T06:35:42;7.20;99.90
23471;DHT22;11908;50.806;4.424;2023-01-30T06:38:08;7.10;99.90
23471;DHT22;11908;50.806;4.424;2023-01-30T06:40:36;7.10;99.90
23471;DHT22;11908;50.806;4.424;2023-01-30T06:43:02;7.10;99.90
23471;DHT22;11908;50.806;4.424;2023-01-30T06:45:28;7.10;99.90
23471;DHT22;11908;50.806;4.424;2023-01-30T06:47:57;7.00;99.90
23471;DHT22;11908;50.806;4.424;2023-01-30T06:50:25;7.00;99.90
23471;DHT22;11908;50.806;4.424;2023-01-30T06:52:52;7.00;99.90
23471;DHT22;11908;50.806;4.424;2023-01-30T06:55:20;7.00;99.90
23471;DHT22;11908;50.806;4.424;2023-01-30T06:57:45;7.00;99.90
23471;DHT22;11908;50.806;4.424;2023-01-30T07:00:17;7.00;99.90
23471;DHT22;11908;50.806;4.424;2023-01-30T07:02:43;7.10;99.90
23471;DHT22;11908;50.806;4.424;2023-01-30T07:05:09;7.10;99.90
23471;DHT22;11908;50.806;4.424;2023-01-30T07:07:35;7.10;99.90
23471;DHT22;11908;50.806;4.424;2023-01-30T07:10:02;7.10;99.90
23471;DHT22;11908;50.806;4.424;2023-01-30T07:12:28;7.10;99.90
23471;DHT22;11908;50.806;4.424;2023-01-30T07:14:54;7.20;99.90
23471;DHT22;11908;50.806;4.424;2023-01-30T07:17:20;7.10;99.90
23471;DHT22;11908;50.806;4.424;2023-01-30T07:19:46;7.20;99.90
23471;DHT22;11908;50.806;4.424;2023-01-30T07:22:12;7.10;99.90
23471;DHT22;11908;50.806;4.424;2023-01-30T07:24:38;7.20;99.90
23471;DHT22;11908;50.806;4.424;2023-01-30T07:27:08;7.20;99.90
23471;DHT22;11908;50.806;4.424;2023-01-30T07:29:34;7.10;99.90
23471;DHT22;11908;50.806;4.424;2023-01-30T07:32:01;7.00;99.90
23471;DHT22;11908;50.806;4.424;2023-01-30T07:34:26;7.00;99.90
23471;DHT22;11908;50.806;4.424;2023-01-30T07:36:52;7.10;99.90
23471;DHT22;11908;50.806;4.424;2023-01-30T07:39:18;7.10;99.90
23471;DHT22;11908;50.806;4.424;2023-01-30T07:41:43;7.20;99.90
23471;DHT22;11908;50.806;4.424;2023-01-30T07:44:09;7.20;99.90
23471;DHT22;11908;50.806;4.424;2023-01-30T07:46:35;7.10;99.90
23471;DHT22;11908;50.806;4.424;2023-01-30T07:49:01;7.10;99.90
23471;DHT22;11908;50.806;4.424;2023-01-30T07:51:27;7.10;99.90
23471;DHT22;11908;50.806;4.424;2023-01-30T07:53:53;7.10;99.90
23471;DHT22;11908;50.806;4.424;2023-01-30T07:56:18;7.10;99.90
23471;DHT22;11908;50.806;4.424;2023-01-30T07:58:46;7.10;99.90
23471;DHT22;11908;50.806;4.424;2023-01-30T08:01:12;7.10;99.90
23471;DHT22;11908;50.806;4.424;2023-01-30T08:03:38;7.00;99.90
23471;DHT22;11908;50.806;4.424;2023-01-30T08:06:04;7.10;99.90
23471;DHT22;11908;50.806;4.424;2023-01-30T08:08:29;7.10;99.90
23471;DHT22;11908;50.806;4.424;2023-01-30T08:10:55;7.10;99.90
23471;DHT22;11908;50.806;4.424;2023-01-30T08:13:20;7.10;99.90
23471;DHT22;11908;50.806;4.424;2023-01-30T08:15:46;7.10;99.90
23471;DHT22;11908;50.806;4.424;2023-01-30T08:18:12;7.20;99.90
23471;DHT22;11908;50.806;4.424;2023-01-30T08:20:37;7.30;99.90
23471;DHT22;11908;50.806;4.424;2023-01-30T08:23:03;7.40;99.90
23471;DHT22;11908;50.806;4.424;2023-01-30T08:25:29;7.60;99.90
23471;DHT22;11908;50.806;4.424;2023-01-30T08:27:56;7.70;99.90
23471;DHT22;11908;50.806;4.424;2023-01-30T08:30:22;7.60;99.90
23471;DHT22;11908;50.806;4.424;2023-01-30T08:32:48;7.60;99.90
23471;DHT22;11908;50.806;4.424;2023-01-30T08:35:14;7.70;99.90
23471;DHT22;11908;50.806;4.424;2023-01-30T08:37:41;7.80;99.90
23471;DHT22;11908;50.806;4.424;2023-01-30T08:40:07;8.10;99.90
23471;DHT22;11908;50.806;4.424;2023-01-30T08:42:33;8.00;99.90
23471;DHT22;11908;50.806;4.424;2023-01-30T08:44:59;8.00;99.90
23471;DHT22;11908;50.806;4.424;2023-01-30T08:47:25;7.90;99.90
23471;DHT22;11908;50.806;4.424;2023-01-30T08:49:50;8.00;99.90
23471;DHT22;11908;50.806;4.424;2023-01-30T08:52:18;8.20;99.90
23471;DHT22;11908;50.806;4.424;2023-01-30T08:54:43;8.30;99.90
23471;DHT22;11908;50.806;4.424;2023-01-30T08:57:09;8.50;99.90
23471;DHT22;11908;50.806;4.424;2023-01-30T08:59:35;8.60;99.90
23471;DHT22;11908;50.806;4.424;2023-01-30T09:02:00;8.80;99.90
23471;DHT22;11908;50.806;4.424;2023-01-30T09:04:28;8.80;99.90
23471;DHT22;11908;50.806;4.424;2023-01-30T09:06:54;8.80;99.90
23471;DHT22;11908;50.806;4.424;2023-01-30T09:09:20;8.90;99.90
23471;DHT22;11908;50.806;4.424;2023-01-30T09:11:46;9.10;99.90
23471;DHT22;11908;50.806;4.424;2023-01-30T09:14:15;8.90;99.90
23471;DHT22;11908;50.806;4.424;2023-01-30T09:16:47;9.00;99.90
23471;DHT22;11908;50.806;4.424;2023-01-30T09:19:23;9.10;99.90
23471;DHT22;11908;50.806;4.424;2023-01-30T09:21:50;9.30;99.90
23471;DHT22;11908;50.806;4.424;2023-01-30T09:24:16;9.50;99.90
23471;DHT22;11908;50.806;4.424;2023-01-30T09:26:41;9.40;99.90
23471;DHT22;11908;50.806;4.424;2023-01-30T09:29:13;9.30;99.90
23471;DHT22;11908;50.806;4.424;2023-01-30T09:31:39;9.70;99.90
23471;DHT22;11908;50.806;4.424;2023-01-30T09:34:06;9.80;99.90
23471;DHT22;11908;50.806;4.424;2023-01-30T09:36:32;9.80;99.90
23471;DHT22;11908;50.806;4.424;2023-01-30T09:38:58;9.80;99.90
23471;DHT22;11908;50.806;4.424;2023-01-30T09:41:34;10.20;99.90
23471;DHT22;11908;50.806;4.424;2023-01-30T09:47:17;10.60;99.90
23471;DHT22;11908;50.806;4.424;2023-01-30T09:55:12;10.20;99.90
23471;DHT22;11908;50.806;4.424;2023-01-30T09:57:40;10.40;99.90
23471;DHT22;11908;50.806;4.424;2023-01-30T10:00:34;10.50;99.90
23471;DHT22;11908;50.806;4.424;2023-01-30T10:10:50;10.00;99.90
23471;DHT22;11908;50.806;4.424;2023-01-30T10:21:51;10.60;99.90
23471;DHT22;11908;50.806;4.424;2023-01-30T10:27:14;10.60;99.90
23471;DHT22;11908;50.806;4.424;2023-01-30T10:29:44;10.40;99.90
23471;DHT22;11908;50.806;4.424;2023-01-30T10:32:13;10.40;99.90
23471;DHT22;11908;50.806;4.424;2023-01-30T10:34:44;10.60;99.90
23471;DHT22;11908;50.806;4.424;2023-01-30T10:37:13;11.00;99.90
23471;DHT22;11908;50.806;4.424;2023-01-30T10:42:18;11.00;99.90
23471;DHT22;11908;50.806;4.424;2023-01-30T10:44:47;11.10;99.90
23471;DHT22;11908;50.806;4.424;2023-01-30T10:53:01;11.20;99.90
23471;DHT22;11908;50.806;4.424;2023-01-30T11:03:41;11.00;99.90
23471;DHT22;11908;50.806;4.424;2023-01-30T11:06:28;10.90;99.90
23471;DHT22;11908;50.806;4.424;2023-01-30T11:08:56;10.50;99.90
23471;DHT22;11908;50.806;4.424;2023-01-30T11:11:43;10.50;99.90
23471;DHT22;11908;50.806;4.424;2023-01-30T11:14:12;10.40;99.90
23471;DHT22;11908;50.806;4.424;2023-01-30T11:19:09;10.40;99.90
23471;DHT22;11908;50.806;4.424;2023-01-30T11:21:36;10.60;99.90
23471;DHT22;11908;50.806;4.424;2023-01-30T11:24:10;10.40;99.90
23471;DHT22;11908;50.806;4.424;2023-01-30T11:26:36;10.30;99.90
23471;DHT22;11908;50.806;4.424;2023-01-30T11:29:28;10.20;99.90
23471;DHT22;11908;50.806;4.424;2023-01-30T11:31:55;9.80;99.90
23471;DHT22;11908;50.806;4.424;2023-01-30T11:34:22;9.70;99.90
23471;DHT22;11908;50.806;4.424;2023-01-30T11:36:49;9.80;99.90
23471;DHT22;11908;50.806;4.424;2023-01-30T11:41:57;9.90;99.90
23471;DHT22;11908;50.806;4.424;2023-01-30T11:44:27;10.00;99.90
23471;DHT22;11908;50.806;4.424;2023-01-30T11:46:53;10.30;99.90
23471;DHT22;11908;50.806;4.424;2023-01-30T11:49:22;10.30;99.90
23471;DHT22;11908;50.806;4.424;2023-01-30T11:51:51;10.40;99.90
23471;DHT22;11908;50.806;4.424;2023-01-30T11:54:30;10.50;99.90
23471;DHT22;11908;50.806;4.424;2023-01-30T11:56:58;10.40;99.90
23471;DHT22;11908;50.806;4.424;2023-01-30T11:59:34;10.20;99.90
23471;DHT22;11908;50.806;4.424;2023-01-30T12:02:18;10.20;99.90
23471;DHT22;11908;50.806;4.424;2023-01-30T12:04:47;10.00;99.90
23471;DHT22;11908;50.806;4.424;2023-01-30T12:07:27;10.00;99.90
23471;DHT22;11908;50.806;4.424;2023-01-30T12:09:54;9.80;99.90
23471;DHT22;11908;50.806;4.424;2023-01-30T12:14:53;9.70;99.90
23471;DHT22;11908;50.806;4.424;2023-01-30T12:18:02;9.90;99.90
23471;DHT22;11908;50.806;4.424;2023-01-30T12:23:42;9.80;99.90
23471;DHT22;11908;50.806;4.424;2023-01-30T12:26:19;9.90;99.90
23471;DHT22;11908;50.806;4.424;2023-01-30T12:29:02;9.90;99.90
23471;DHT22;11908;50.806;4.424;2023-01-30T12:31:40;10.00;99.90
23471;DHT22;11908;50.806;4.424;2023-01-30T12:34:09;9.90;99.90
23471;DHT22;11908;50.806;4.424;2023-01-30T12:42:20;9.80;99.90
23471;DHT22;11908;50.806;4.424;2023-01-30T12:50:44;9.60;99.90
23471;DHT22;11908;50.806;4.424;2023-01-30T12:53:28;9.40;99.90
23471;DHT22;11908;50.806;4.424;2023-01-30T12:58:44;9.40;99.90
23471;DHT22;11908;50.806;4.424;2023-01-30T13:04:17;9.40;99.90
23471;DHT22;11908;50.806;4.424;2023-01-30T13:13:31;9.20;99.90
23471;DHT22;11908;50.806;4.424;2023-01-30T13:15:37;9.20;99.90
23471;DHT22;11908;50.806;4.424;2023-01-30T13:21:00;9.30;99.90
23471;DHT22;11908;50.806;4.424;2023-01-30T13:23:44;9.30;99.90
23471;DHT22;11908;50.806;4.424;2023-01-30T13:26:21;9.20;99.90
23471;DHT22;11908;50.806;4.424;2023-01-30T13:28:52;9.30;99.90
23471;DHT22;11908;50.806;4.424;2023-01-30T13:31:22;9.40;99.90
23471;DHT22;11908;50.806;4.424;2023-01-30T13:33:51;9.50;99.90
23471;DHT22;11908;50.806;4.424;2023-01-30T13:36:24;9.50;99.90
23471;DHT22;11908;50.806;4.424;2023-01-30T13:38:58;9.60;99.90
23471;DHT22;11908;50.806;4.424;2023-01-30T13:41:30;9.50;99.90
23471;DHT22;11908;50.806;4.424;2023-01-30T13:43:58;9.60;99.90
23471;DHT22;11908;50.806;4.424;2023-01-30T13:46:26;9.70;99.90
23471;DHT22;11908;50.806;4.424;2023-01-30T13:51:46;9.70;99.90
23471;DHT22;11908;50.806;4.424;2023-01-30T13:57:05;9.60;99.90
23471;DHT22;11908;50.806;4.424;2023-01-30T14:04:42;9.90;99.90
23471;DHT22;11908;50.806;4.424;2023-01-30T14:07:15;9.80;99.90
23471;DHT22;11908;50.806;4.424;2023-01-30T14:09:49;9.70;99.90
23471;DHT22;11908;50.806;4.424;2023-01-30T14:12:22;9.60;99.90
23471;DHT22;11908;50.806;4.424;2023-01-30T14:15:02;9.60;99.90
23471;DHT22;11908;50.806;4.424;2023-01-30T14:17:29;9.60;99.90
23471;DHT22;11908;50.806;4.424;2023-01-30T14:20:15;9.50;99.90
23471;DHT22;11908;50.806;4.424;2023-01-30T14:22:57;9.40;99.90
23471;DHT22;11908;50.806;4.424;2023-01-30T14:25:30;9.30;99.90
23471;DHT22;11908;50.806;4.424;2023-01-30T14:38:32;9.00;99.90
23471;DHT22;11908;50.806;4.424;2023-01-30T14:45:59;8.80;99.90
23471;DHT22;11908;50.806;4.424;2023-01-30T14:59:39;9.10;99.90
23471;DHT22;11908;50.806;4.424;2023-01-30T15:07:23;9.10;99.90
23471;DHT22;11908;50.806;4.424;2023-01-30T15:18:25;9.10;99.90
23471;DHT22;11908;50.806;4.424;2023-01-30T15:24:26;8.90;99.90
23471;DHT22;11908;50.806;4.424;2023-01-30T15:27:12;8.90;99.90
23471;DHT22;11908;50.806;4.424;2023-01-30T15:32:21;8.70;99.90
23471;DHT22;11908;50.806;4.424;2023-01-30T15:35:09;8.70;99.90
23471;DHT22;11908;50.806;4.424;2023-01-30T15:37:52;8.80;99.90
23471;DHT22;11908;50.806;4.424;2023-01-30T15:40:21;8.80;99.90
23471;DHT22;11908;50.806;4.424;2023-01-30T15:48:19;8.80;99.90
23471;DHT22;11908;50.806;4.424;2023-01-30T15:50:52;8.80;99.90
23471;DHT22;11908;50.806;4.424;2023-01-30T15:53:26;8.70;99.90
23471;DHT22;11908;50.806;4.424;2023-01-30T15:55:52;8.70;99.90
23471;DHT22;11908;50.806;4.424;2023-01-30T15:58:19;8.70;99.90
23471;DHT22;11908;50.806;4.424;2023-01-30T16:00:48;8.60;99.90
23471;DHT22;11908;50.806;4.424;2023-01-30T16:03:19;8.60;99.90
23471;DHT22;11908;50.806;4.424;2023-01-30T16:05:51;8.60;99.90
23471;DHT22;11908;50.806;4.424;2023-01-30T16:08:23;8.60;99.90
23471;DHT22;11908;50.806;4.424;2023-01-30T16:10:49;8.60;99.90
23471;DHT22;11908;50.806;4.424;2023-01-30T16:13:19;8.50;99.90
23471;DHT22;11908;50.806;4.424;2023-01-30T16:16:05;8.50;99.90
23471;DHT22;11908;50.806;4.424;2023-01-30T16:18:52;8.60;99.90
23471;DHT22;11908;50.806;4.424;2023-01-30T16:21:25;8.50;99.90
23471;DHT22;11908;50.806;4.424;2023-01-30T16:24:05;8.50;99.90
23471;DHT22;11908;50.806;4.424;2023-01-30T16:26:34;8.60;99.90
23471;DHT22;11908;50.806;4.424;2023-01-30T16:29:10;8.50;99.90
23471;DHT22;11908;50.806;4.424;2023-01-30T16:31:38;8.60;99.90
23471;DHT22;11908;50.806;4.424;2023-01-30T16:34:05;8.50;99.90
23471;DHT22;11908;50.806;4.424;2023-01-30T16:36:39;8.50;99.90
23471;DHT22;11908;50.806;4.424;2023-01-30T16:39:27;8.60;99.90
23471;DHT22;11908;50.806;4.424;2023-01-30T16:41:54;8.60;99.90
23471;DHT22;11908;50.806;4.424;2023-01-30T16:44:25;8.60;99.90
23471;DHT22;11908;50.806;4.424;2023-01-30T16:47:04;8.60;99.90
23471;DHT22;11908;50.806;4.424;2023-01-30T16:52:30;8.50;99.90
23471;DHT22;11908;50.806;4.424;2023-01-30T16:55:01;8.40;99.90
23471;DHT22;11908;50.806;4.424;2023-01-30T16:57:37;8.50;99.90
23471;DHT22;11908;50.806;4.424;2023-01-30T17:00:34;8.50;99.90
23471;DHT22;11908;50.806;4.424;2023-01-30T17:03:04;8.40;99.90
23471;DHT22;11908;50.806;4.424;2023-01-30T17:05:37;8.50;99.90
23471;DHT22;11908;50.806;4.424;2023-01-30T17:08:04;8.40;99.90
23471;DHT22;11908;50.806;4.424;2023-01-30T17:18:51;8.30;99.90
23471;DHT22;11908;50.806;4.424;2023-01-30T17:21:18;8.30;99.90
23471;DHT22;11908;50.806;4.424;2023-01-30T17:23:49;8.30;99.90
23471;DHT22;11908;50.806;4.424;2023-01-30T17:26:16;8.20;99.90
23471;DHT22;11908;50.806;4.424;2023-01-30T17:28:42;8.20;99.90
23471;DHT22;11908;50.806;4.424;2023-01-30T17:31:15;8.20;99.90
23471;DHT22;11908;50.806;4.424;2023-01-30T17:33:41;8.20;99.90
23471;DHT22;11908;50.806;4.424;2023-01-30T17:36:17;8.20;99.90
23471;DHT22;11908;50.806;4.424;2023-01-30T17:38:45;8.20;99.90
23471;DHT22;11908;50.806;4.424;2023-01-30T17:41:22;8.30;99.90
23471;DHT22;11908;50.806;4.424;2023-01-30T17:43:48;8.30;99.90
23471;DHT22;11908;50.806;4.424;2023-01-30T17:46:14;8.30;99.90
23471;DHT22;11908;50.806;4.424;2023-01-30T17:48:41;8.30;99.90
23471;DHT22;11908;50.806;4.424;2023-01-30T17:51:06;8.30;99.90
23471;DHT22;11908;50.806;4.424;2023-01-30T17:53:33;8.30;99.90
23471;DHT22;11908;50.806;4.424;2023-01-30T17:55:59;8.30;99.90
23471;DHT22;11908;50.806;4.424;2023-01-30T17:58:24;8.20;99.90
23471;DHT22;11908;50.806;4.424;2023-01-30T18:00:50;8.20;99.90
23471;DHT22;11908;50.806;4.424;2023-01-30T18:03:17;8.10;99.90
23471;DHT22;11908;50.806;4.424;2023-01-30T18:05:43;8.10;99.90
23471;DHT22;11908;50.806;4.424;2023-01-30T18:08:09;8.10;99.90
23471;DHT22;11908;50.806;4.424;2023-01-30T18:10:35;8.10;99.90
23471;DHT22;11908;50.806;4.424;2023-01-30T18:13:00;8.10;99.90
23471;DHT22;11908;50.806;4.424;2023-01-30T18:15:26;8.10;99.90
23471;DHT22;11908;50.806;4.424;2023-01-30T18:17:52;8.20;99.90
23471;DHT22;11908;50.806;4.424;2023-01-30T18:20:21;8.10;99.90
23471;DHT22;11908;50.806;4.424;2023-01-30T18:22:46;8.10;99.90
23471;DHT22;11908;50.806;4.424;2023-01-30T18:25:12;8.00;99.90
23471;DHT22;11908;50.806;4.424;2023-01-30T18:27:43;8.10;99.90
23471;DHT22;11908;50.806;4.424;2023-01-30T18:30:11;8.00;99.90
23471;DHT22;11908;50.806;4.424;2023-01-30T18:32:37;8.00;99.90
23471;DHT22;11908;50.806;4.424;2023-01-30T18:35:03;8.00;99.90
23471;DHT22;11908;50.806;4.424;2023-01-30T18:37:29;8.10;99.90
23471;DHT22;11908;50.806;4.424;2023-01-30T18:39:55;8.00;99.90
23471;DHT22;11908;50.806;4.424;2023-01-30T18:42:21;8.00;99.90
23471;DHT22;11908;50.806;4.424;2023-01-30T18:44:47;8.00;99.90
23471;DHT22;11908;50.806;4.424;2023-01-30T18:47:12;7.90;99.90
23471;DHT22;11908;50.806;4.424;2023-01-30T18:49:38;7.90;99.90
23471;DHT22;11908;50.806;4.424;2023-01-30T18:52:04;7.90;99.90
23471;DHT22;11908;50.806;4.424;2023-01-30T18:54:29;7.90;99.90
23471;DHT22;11908;50.806;4.424;2023-01-30T18:56:55;8.00;99.90
23471;DHT22;11908;50.806;4.424;2023-01-30T18:59:22;7.90;99.90
23471;DHT22;11908;50.806;4.424;2023-01-30T19:01:49;7.90;99.90
23471;DHT22;11908;50.806;4.424;2023-01-30T19:04:15;8.00;99.90